createdAt,value
2023-03-26T00:00:03.000Z,11.5
2023-03-26T00:01:15.000Z,11.5
2023-03-26T00:02:28.000Z,11.5
2023-03-26T00:03:40.000Z,11.5
2023-03-26T00:04:52.000Z,11.5
2023-03-26T00:06:03.000Z,11.6
2023-03-26T00:07:15.000Z,11.6
2023-03-26T00:08:27.000Z,11.6
2023-03-26T00:09:40.000Z,11.6
2023-03-26T00:10:52.000Z,11.6
2023-03-26T00:12:04.000Z,11.5
2023-03-26T00:13:15.000Z,11.6
2023-03-26T00:14:27.000Z,11.5
2023-03-26T00:15:40.000Z,11.5
2023-03-26T00:16:52.000Z,11.6
2023-03-26T00:18:04.000Z,11.6
2023-03-26T00:19:16.000Z,11.6
2023-03-26T00:20:28.000Z,11.6
2023-03-26T00:21:41.000Z,11.6
2023-03-26T00:22:53.000Z,11.5
2023-03-26T00:24:05.000Z,11.6
2023-03-26T00:25:17.000Z,11.5
2023-03-26T00:26:29.000Z,11.5
2023-03-26T00:27:41.000Z,11.5
2023-03-26T00:28:53.000Z,11.6
2023-03-26T00:30:05.000Z,11.6
2023-03-26T00:31:17.000Z,11.5
2023-03-26T00:32:29.000Z,11.5
2023-03-26T00:33:41.000Z,11.6
2023-03-26T00:34:54.000Z,11.5
2023-03-26T00:36:06.000Z,11.5
2023-03-26T00:37:18.000Z,11.6
2023-03-26T00:38:30.000Z,11.5
2023-03-26T00:39:42.000Z,11.5
2023-03-26T00:40:54.000Z,11.6
2023-03-26T00:42:07.000Z,11.5
2023-03-26T00:43:19.000Z,11.5
2023-03-26T00:44:30.000Z,11.6
2023-03-26T00:45:42.000Z,11.5
2023-03-26T00:46:54.000Z,11.5
2023-03-26T00:48:07.000Z,11.5
2023-03-26T00:49:19.000Z,11.5
2023-03-26T00:50:31.000Z,11.5
2023-03-26T00:51:43.000Z,11.6
2023-03-26T00:52:55.000Z,11.6
2023-03-26T00:54:08.000Z,11.6
2023-03-26T00:55:20.000Z,11.6
2023-03-26T00:56:32.000Z,11.5
2023-03-26T00:57:44.000Z,11.5
2023-03-26T00:58:56.000Z,11.5
2023-03-26T01:00:07.000Z,11.6
2023-03-26T01:01:20.000Z,11.5
2023-03-26T01:02:32.000Z,11.5
2023-03-26T01:03:44.000Z,11.5
2023-03-26T01:04:56.000Z,11.5
2023-03-26T01:06:08.000Z,11.5
2023-03-26T01:07:21.000Z,11.5
2023-03-26T01:08:33.000Z,11.5
2023-03-26T01:09:45.000Z,11.5
2023-03-26T01:10:57.000Z,11.5
2023-03-26T01:12:09.000Z,11.5
2023-03-26T01:13:22.000Z,11.5
2023-03-26T01:14:34.000Z,11.5
2023-03-26T01:15:45.000Z,11.5
2023-03-26T01:16:57.000Z,11.5
2023-03-26T01:18:09.000Z,11.5
2023-03-26T01:19:21.000Z,11.5
2023-03-26T01:20:34.000Z,11.5
2023-03-26T01:21:46.000Z,11.5
2023-03-26T01:22:58.000Z,11.5
2023-03-26T01:24:10.000Z,11.5
2023-03-26T01:25:22.000Z,11.5
2023-03-26T01:26:35.000Z,11.5
2023-03-26T01:27:47.000Z,11.5
2023-03-26T01:28:59.000Z,11.5
2023-03-26T01:30:11.000Z,11.5
2023-03-26T01:31:22.000Z,11.5
2023-03-26T01:32:35.000Z,11.5
2023-03-26T01:33:47.000Z,11.5
2023-03-26T01:34:59.000Z,11.5
2023-03-26T01:36:11.000Z,11.5
2023-03-26T01:37:23.000Z,11.5
2023-03-26T01:38:35.000Z,11.5
2023-03-26T01:40:36.914Z,11.5
2023-03-26T01:41:00.000Z,11.5
2023-03-26T01:42:12.000Z,11.5
2023-03-26T01:43:24.000Z,11.5
2023-03-26T01:44:36.000Z,11.5
2023-03-26T01:45:49.000Z,11.5
2023-03-26T01:47:00.000Z,11.5
2023-03-26T01:48:12.000Z,11.5
2023-03-26T01:49:24.000Z,11.5
2023-03-26T01:51:25.609Z,11.5
2023-03-26T01:51:49.000Z,11.5
2023-03-26T01:53:01.000Z,11.5
2023-03-26T01:54:13.000Z,11.5
2023-03-26T01:55:25.000Z,11.5
2023-03-26T01:56:37.000Z,11.5
2023-03-26T01:57:49.000Z,11.5
2023-03-26T01:59:02.000Z,11.4
2023-03-26T02:00:14.000Z,11.4
2023-03-26T02:01:26.000Z,11.4
2023-03-26T02:02:37.000Z,11.4
2023-03-26T02:03:49.000Z,11.4
2023-03-26T02:05:02.000Z,11.4
2023-03-26T02:06:14.000Z,11.4
2023-03-26T02:07:26.000Z,11.4
2023-03-26T02:08:38.000Z,11.4
2023-03-26T02:09:50.000Z,11.4
2023-03-26T02:11:02.000Z,11.4
2023-03-26T02:12:15.000Z,11.4
2023-03-26T02:13:27.000Z,11.4
2023-03-26T02:14:39.000Z,11.4
2023-03-26T02:15:51.000Z,11.3
2023-03-26T02:17:52.727Z,11.3
2023-03-26T02:18:15.000Z,11.3
2023-03-26T02:19:27.000Z,11.3
2023-03-26T02:20:39.000Z,11.3
2023-03-26T02:21:51.000Z,11.3
2023-03-26T02:23:03.000Z,11.3
2023-03-26T02:24:16.000Z,11.3
2023-03-26T02:25:28.000Z,11.3
2023-03-26T02:26:40.000Z,11.3
2023-03-26T02:27:52.000Z,11.3
2023-03-26T02:29:04.000Z,11.3
2023-03-26T02:30:16.000Z,11.3
2023-03-26T02:31:29.000Z,11.3
2023-03-26T02:32:41.000Z,11.3
2023-03-26T02:33:52.000Z,11.3
2023-03-26T02:35:04.000Z,11.3
2023-03-26T02:36:16.000Z,11.3
2023-03-26T02:37:29.000Z,11.3
2023-03-26T02:38:41.000Z,11.3
2023-03-26T02:39:53.000Z,11.3
2023-03-26T02:41:05.000Z,11.3
2023-03-26T02:42:17.000Z,11.3
2023-03-26T02:43:30.000Z,11.3
2023-03-26T02:44:42.000Z,11.3
2023-03-26T02:45:54.000Z,11.3
2023-03-26T02:47:06.000Z,11.3
2023-03-26T02:48:18.000Z,11.3
2023-03-26T02:49:29.000Z,11.3
2023-03-26T02:50:42.000Z,11.3
2023-03-26T02:51:54.000Z,11.3
2023-03-26T02:53:06.000Z,11.3
2023-03-26T02:54:18.000Z,11.3
2023-03-26T02:55:30.000Z,11.3
2023-03-26T02:57:31.920Z,11.3
2023-03-26T02:57:55.000Z,11.3
2023-03-26T02:59:07.000Z,11.3
2023-03-26T03:00:19.000Z,11.3
2023-03-26T03:01:31.000Z,11.2
2023-03-26T03:02:44.000Z,11.2
2023-03-26T03:03:56.000Z,11.2
2023-03-26T03:05:56.227Z,11.2
2023-03-26T03:06:19.000Z,11.2
2023-03-26T03:07:31.000Z,11.2
2023-03-26T03:08:43.000Z,11.2
2023-03-26T03:09:56.000Z,11.2
2023-03-26T03:11:08.000Z,11.2
2023-03-26T03:12:20.000Z,11.1
2023-03-26T03:13:32.000Z,11.1
2023-03-26T03:14:44.000Z,11.1
2023-03-26T03:15:57.000Z,11.1
2023-03-26T03:17:09.000Z,11.1
2023-03-26T03:18:21.000Z,11.1
2023-03-26T03:19:33.000Z,11.1
2023-03-26T03:20:44.000Z,11.1
2023-03-26T03:21:57.000Z,11.1
2023-03-26T03:23:09.000Z,11.1
2023-03-26T03:24:21.000Z,11.1
2023-03-26T03:25:33.000Z,11.1
2023-03-26T03:26:45.000Z,11.1
2023-03-26T03:27:57.000Z,11.1
2023-03-26T03:29:10.000Z,11.1
2023-03-26T03:30:22.000Z,11.1
2023-03-26T03:31:34.000Z,11.1
2023-03-26T03:33:35.521Z,11.1
2023-03-26T03:33:58.000Z,11.1
2023-03-26T03:35:11.000Z,11.1
2023-03-26T03:36:22.000Z,11.1
2023-03-26T03:37:34.000Z,11.1
2023-03-26T03:38:46.000Z,11
2023-03-26T03:39:58.000Z,11.1
2023-03-26T03:41:10.000Z,11
2023-03-26T03:42:23.000Z,11
2023-03-26T03:43:35.000Z,11
2023-03-26T03:44:47.000Z,11
2023-03-26T03:45:59.000Z,11
2023-03-26T03:47:11.000Z,11
2023-03-26T03:48:24.000Z,11
2023-03-26T03:49:36.000Z,11
2023-03-26T03:50:48.000Z,11
2023-03-26T03:51:59.000Z,11
2023-03-26T03:53:11.000Z,11
2023-03-26T03:54:24.000Z,10.9
2023-03-26T03:55:36.000Z,10.9
2023-03-26T03:56:48.000Z,10.9
2023-03-26T03:58:00.000Z,10.9
2023-03-26T03:59:12.000Z,10.9
2023-03-26T04:00:24.000Z,10.9
2023-03-26T04:01:37.000Z,10.9
2023-03-26T04:02:49.000Z,10.9
2023-03-26T04:04:01.000Z,10.9
2023-03-26T04:05:13.000Z,10.9
2023-03-26T04:06:25.000Z,10.9
2023-03-26T04:07:37.000Z,10.9
2023-03-26T04:08:49.000Z,10.9
2023-03-26T04:10:01.000Z,10.9
2023-03-26T04:11:13.000Z,10.9
2023-03-26T04:12:25.000Z,10.9
2023-03-26T04:13:37.000Z,10.9
2023-03-26T04:14:49.000Z,10.9
2023-03-26T04:16:01.000Z,10.9
2023-03-26T04:17:13.000Z,10.9
2023-03-26T04:18:25.000Z,10.9
2023-03-26T04:19:37.000Z,10.9
2023-03-26T04:20:50.000Z,10.9
2023-03-26T04:22:02.268Z,10.9
2023-03-26T04:23:14.000Z,10.9
2023-03-26T04:24:26.000Z,10.9
2023-03-26T04:25:38.000Z,10.9
2023-03-26T04:26:51.000Z,10.9
2023-03-26T04:28:03.000Z,10.9
2023-03-26T04:29:15.000Z,10.9
2023-03-26T04:30:26.000Z,10.9
2023-03-26T04:31:38.000Z,11
2023-03-26T04:32:50.000Z,10.9
2023-03-26T04:34:03.000Z,11
2023-03-26T04:36:04.200Z,11
2023-03-26T04:36:27.000Z,11
2023-03-26T04:37:39.000Z,11
2023-03-26T04:38:51.000Z,11
2023-03-26T04:40:04.000Z,11
2023-03-26T04:41:16.000Z,11
2023-03-26T04:42:28.000Z,11
2023-03-26T04:43:40.000Z,11
2023-03-26T04:44:52.000Z,11
2023-03-26T04:46:03.000Z,11
2023-03-26T04:47:16.000Z,11
2023-03-26T04:48:28.000Z,11
2023-03-26T04:49:40.000Z,11
2023-03-26T04:50:52.000Z,11
2023-03-26T04:52:04.000Z,11.1
2023-03-26T04:53:17.000Z,11.1
2023-03-26T04:54:29.000Z,11.1
2023-03-26T04:55:41.000Z,11.1
2023-03-26T04:56:53.000Z,11.1
2023-03-26T04:58:05.000Z,11.1
2023-03-26T04:59:17.000Z,11.1
2023-03-26T05:00:30.000Z,11.1
2023-03-26T05:01:41.000Z,11.1
2023-03-26T05:03:42.488Z,11.1
2023-03-26T05:04:05.000Z,11.1
2023-03-26T05:05:17.000Z,11.1
2023-03-26T05:06:30.000Z,11.1
2023-03-26T05:07:42.000Z,11.1
2023-03-26T05:08:54.000Z,11.1
2023-03-26T05:10:06.000Z,11.1
2023-03-26T05:11:18.000Z,11.1
2023-03-26T05:12:31.000Z,11.1
2023-03-26T05:13:43.000Z,11.1
2023-03-26T05:15:44.335Z,11.1
2023-03-26T05:16:07.000Z,11.1
2023-03-26T05:17:18.000Z,11.1
2023-03-26T05:18:30.000Z,11.1
2023-03-26T05:19:43.000Z,11.1
2023-03-26T05:20:55.000Z,11.1
2023-03-26T05:22:07.000Z,11.2
2023-03-26T05:23:19.000Z,11.1
2023-03-26T05:24:31.000Z,11.2
2023-03-26T05:25:44.000Z,11.2
2023-03-26T05:26:56.000Z,11.1
2023-03-26T05:28:08.000Z,11.1
2023-03-26T05:29:20.000Z,11.2
2023-03-26T05:30:32.000Z,11.1
2023-03-26T05:31:44.000Z,11.2
2023-03-26T05:32:56.000Z,11.2
2023-03-26T05:34:08.000Z,11.2
2023-03-26T05:35:20.000Z,11.2
2023-03-26T05:36:32.000Z,11.2
2023-03-26T05:37:44.000Z,11.1
2023-03-26T05:38:57.000Z,11.2
2023-03-26T05:40:09.000Z,11.2
2023-03-26T05:41:21.000Z,11.2
2023-03-26T05:42:33.000Z,11.2
2023-03-26T05:43:45.000Z,11.2
2023-03-26T05:44:58.000Z,11.2
2023-03-26T05:46:10.000Z,11.2
2023-03-26T05:47:22.000Z,11.2
2023-03-26T05:48:33.000Z,11.2
2023-03-26T05:49:45.000Z,11.2
2023-03-26T05:50:57.000Z,11.2
2023-03-26T05:52:10.000Z,11.2
2023-03-26T05:53:22.000Z,11.3
2023-03-26T05:54:34.000Z,11.3
2023-03-26T05:55:46.000Z,11.3
2023-03-26T05:56:58.000Z,11.3
2023-03-26T05:58:11.000Z,11.2
2023-03-26T05:59:23.000Z,11.3
2023-03-26T06:00:35.000Z,11.3
2023-03-26T06:01:47.000Z,11.3
2023-03-26T06:02:59.000Z,11.3
2023-03-26T06:04:11.000Z,11.3
2023-03-26T06:05:23.000Z,11.3
2023-03-26T06:06:35.000Z,11.3
2023-03-26T06:07:47.000Z,11.3
2023-03-26T06:08:59.000Z,11.3
2023-03-26T06:10:11.000Z,11.3
2023-03-26T06:11:24.000Z,11.3
2023-03-26T06:12:36.000Z,11.4
2023-03-26T06:13:48.000Z,11.4
2023-03-26T06:15:00.000Z,11.4
2023-03-26T06:16:12.000Z,11.4
2023-03-26T06:17:25.000Z,11.4
2023-03-26T06:18:37.000Z,11.4
2023-03-26T06:19:48.000Z,11.4
2023-03-26T06:21:00.000Z,11.4
2023-03-26T06:22:12.000Z,11.5
2023-03-26T06:23:24.000Z,11.5
2023-03-26T06:24:37.000Z,11.5
2023-03-26T06:25:49.000Z,11.5
2023-03-26T06:27:01.000Z,11.5
2023-03-26T06:28:13.000Z,11.5
2023-03-26T06:29:25.000Z,11.5
2023-03-26T06:30:38.000Z,11.6
2023-03-26T06:31:50.000Z,11.6
2023-03-26T06:33:02.000Z,11.6
2023-03-26T06:34:14.000Z,11.6
2023-03-26T06:35:25.000Z,11.7
2023-03-26T06:36:38.000Z,11.7
2023-03-26T06:37:50.000Z,11.7
2023-03-26T06:39:02.000Z,11.7
2023-03-26T06:40:14.000Z,11.7
2023-03-26T06:41:26.000Z,11.8
2023-03-26T06:42:38.000Z,11.8
2023-03-26T06:43:51.000Z,11.8
2023-03-26T06:45:03.000Z,11.9
2023-03-26T06:46:15.000Z,11.9
2023-03-26T06:47:27.000Z,11.9
2023-03-26T06:48:39.000Z,11.9
2023-03-26T06:49:52.000Z,11.9
2023-03-26T06:51:03.000Z,11.9
2023-03-26T06:52:15.000Z,11.9
2023-03-26T06:53:27.000Z,12
2023-03-26T06:54:39.000Z,12
2023-03-26T06:55:51.000Z,12
2023-03-26T06:57:04.000Z,11.9
2023-03-26T06:58:16.000Z,11.9
2023-03-26T06:59:28.000Z,11.9
2023-03-26T07:00:40.000Z,11.9
2023-03-26T07:02:41.877Z,11.9
2023-03-26T07:03:05.000Z,11.9
2023-03-26T07:04:17.000Z,11.9
2023-03-26T07:05:29.000Z,11.9
2023-03-26T07:06:40.000Z,11.9
2023-03-26T07:07:52.000Z,11.9
2023-03-26T07:09:04.000Z,11.9
2023-03-26T07:10:17.000Z,11.9
2023-03-26T07:11:29.000Z,11.9
2023-03-26T07:12:41.000Z,12
2023-03-26T07:13:53.000Z,12
2023-03-26T07:15:05.000Z,12
2023-03-26T07:16:18.000Z,12.1
2023-03-26T07:17:30.000Z,12.1
2023-03-26T07:18:42.000Z,12.2
2023-03-26T07:19:54.000Z,12.3
2023-03-26T07:21:06.000Z,12.4
2023-03-26T07:22:18.000Z,12.4
2023-03-26T07:23:30.000Z,12.5
2023-03-26T07:24:42.000Z,12.6
2023-03-26T07:25:54.000Z,12.6
2023-03-26T07:27:55.788Z,12.7
2023-03-26T07:28:18.000Z,12.7
2023-03-26T07:29:31.000Z,12.7
2023-03-26T07:30:43.000Z,12.7
2023-03-26T07:31:55.000Z,12.7
2023-03-26T07:33:07.000Z,12.7
2023-03-26T07:34:19.000Z,12.7
2023-03-26T07:36:21.079Z,12.7
2023-03-26T07:36:44.000Z,12.8
2023-03-26T07:37:55.000Z,12.8
2023-03-26T07:39:07.000Z,12.8
2023-03-26T07:40:19.000Z,12.8
2023-03-26T07:41:31.000Z,12.7
2023-03-26T07:42:44.000Z,12.7
2023-03-26T07:43:56.000Z,12.7
2023-03-26T07:45:08.000Z,12.7
2023-03-26T07:46:20.000Z,12.7
2023-03-26T07:47:32.000Z,12.7
2023-03-26T07:48:45.000Z,12.7
2023-03-26T07:49:57.000Z,12.7
2023-03-26T07:51:09.000Z,12.7
2023-03-26T07:52:21.000Z,12.7
2023-03-26T07:53:32.000Z,12.7
2023-03-26T07:54:45.000Z,12.7
2023-03-26T07:55:57.000Z,12.7
2023-03-26T07:57:09.000Z,12.7
2023-03-26T07:58:21.000Z,12.7
2023-03-26T07:59:33.000Z,12.7
2023-03-26T08:00:45.000Z,12.7
2023-03-26T08:01:58.000Z,12.8
2023-03-26T08:03:10.000Z,12.8
2023-03-26T08:04:22.000Z,12.8
2023-03-26T08:05:34.000Z,12.8
2023-03-26T08:06:46.000Z,12.8
2023-03-26T08:07:59.000Z,12.8
2023-03-26T08:09:10.000Z,12.8
2023-03-26T08:10:22.000Z,12.8
2023-03-26T08:11:34.000Z,12.8
2023-03-26T08:12:46.000Z,12.8
2023-03-26T08:13:58.000Z,12.9
2023-03-26T08:15:11.000Z,12.9
2023-03-26T08:16:22.000Z,12.9
2023-03-26T08:18:23.611Z,13
2023-03-26T08:18:46.000Z,13
2023-03-26T08:19:58.000Z,13
2023-03-26T08:21:11.000Z,13
2023-03-26T08:22:23.000Z,13
2023-03-26T08:23:35.000Z,13
2023-03-26T08:24:47.000Z,13
2023-03-26T08:25:59.000Z,13
2023-03-26T08:27:12.000Z,13
2023-03-26T08:28:24.000Z,13.1
2023-03-26T08:29:36.000Z,13.1
2023-03-26T08:30:48.000Z,13.1
2023-03-26T08:31:59.000Z,13.1
2023-03-26T08:33:11.000Z,13.2
2023-03-26T08:34:24.000Z,13.2
2023-03-26T08:35:36.000Z,13.3
2023-03-26T08:36:48.000Z,13.4
2023-03-26T08:38:00.000Z,13.5
2023-03-26T08:39:12.000Z,13.5
2023-03-26T08:40:25.000Z,13.7
2023-03-26T08:41:37.000Z,13.8
2023-03-26T08:42:49.000Z,13.9
2023-03-26T08:44:01.000Z,14
2023-03-26T08:45:13.000Z,14.2
2023-03-26T08:46:25.000Z,14.2
2023-03-26T08:47:37.000Z,14.3
2023-03-26T08:48:49.000Z,14.3
2023-03-26T08:50:01.000Z,14.3
2023-03-26T08:51:13.000Z,14.3
2023-03-26T08:52:25.000Z,14.3
2023-03-26T08:53:38.000Z,14.3
2023-03-26T08:54:50.000Z,14.3
2023-03-26T08:56:51.565Z,14.3
2023-03-26T08:57:14.000Z,14.3
2023-03-26T08:58:26.000Z,14.3
2023-03-26T08:59:39.000Z,14.3
2023-03-26T09:00:51.000Z,14.3
2023-03-26T09:02:03.000Z,14.3
2023-03-26T09:03:14.000Z,14.3
2023-03-26T09:04:26.000Z,14.4
2023-03-26T09:05:38.000Z,14.4
2023-03-26T09:06:51.000Z,14.4
2023-03-26T09:08:03.000Z,14.4
2023-03-26T09:09:15.000Z,14.4
2023-03-26T09:10:27.000Z,14.5
2023-03-26T09:11:39.000Z,14.4
2023-03-26T09:12:52.000Z,14.5
2023-03-26T09:14:04.000Z,14.5
2023-03-26T09:15:16.000Z,14.5
2023-03-26T09:16:28.000Z,14.6
2023-03-26T09:17:40.000Z,14.6
2023-03-26T09:18:52.000Z,14.7
2023-03-26T09:20:04.000Z,14.7
2023-03-26T09:21:16.000Z,14.7
2023-03-26T09:22:28.000Z,14.7
2023-03-26T09:23:40.000Z,14.7
2023-03-26T09:24:52.000Z,14.7
2023-03-26T09:26:05.000Z,14.7
2023-03-26T09:27:17.000Z,14.8
2023-03-26T09:28:29.000Z,14.9
2023-03-26T09:29:41.000Z,15
2023-03-26T09:30:53.000Z,15
2023-03-26T09:32:06.000Z,15
2023-03-26T09:33:18.000Z,15
2023-03-26T09:34:29.000Z,15
2023-03-26T09:35:41.000Z,15
2023-03-26T09:36:53.000Z,15
2023-03-26T09:38:05.000Z,14.9
2023-03-26T09:39:18.000Z,14.9
2023-03-26T09:40:30.000Z,14.9
2023-03-26T09:41:42.000Z,14.9
2023-03-26T09:42:54.000Z,14.9
2023-03-26T09:44:06.000Z,15
2023-03-26T09:45:19.000Z,15
2023-03-26T09:46:31.000Z,15.1
2023-03-26T09:47:43.000Z,15.1
2023-03-26T09:48:55.000Z,15.2
2023-03-26T09:50:06.000Z,15.3
2023-03-26T09:51:19.000Z,15.4
2023-03-26T09:52:31.000Z,15.4
2023-03-26T09:53:43.000Z,15.4
2023-03-26T09:54:55.000Z,15.4
2023-03-26T09:56:56.864Z,15.5
2023-03-26T09:57:19.000Z,15.5
2023-03-26T09:58:32.000Z,15.5
2023-03-26T09:59:44.000Z,15.4
2023-03-26T10:00:56.000Z,15.4
2023-03-26T10:02:08.000Z,15.4
2023-03-26T10:03:20.000Z,15.4
2023-03-26T10:04:33.000Z,15.4
2023-03-26T10:05:44.000Z,15.4
2023-03-26T10:06:56.000Z,15.4
2023-03-26T10:08:08.000Z,15.4
2023-03-26T10:09:20.000Z,15.4
2023-03-26T10:10:32.000Z,15.4
2023-03-26T10:11:45.000Z,15.5
2023-03-26T10:12:57.000Z,15.7
2023-03-26T10:14:09.000Z,15.8
2023-03-26T10:15:21.000Z,15.8
2023-03-26T10:16:33.000Z,15.7
2023-03-26T10:17:46.000Z,15.6
2023-03-26T10:18:58.000Z,15.6
2023-03-26T10:20:10.000Z,15.5
2023-03-26T10:21:21.000Z,15.6
2023-03-26T10:22:33.000Z,15.5
2023-03-26T10:23:46.000Z,15.5
2023-03-26T10:24:58.000Z,15.5
2023-03-26T10:26:10.000Z,15.5
2023-03-26T10:27:22.000Z,15.5
2023-03-26T10:28:34.000Z,15.6
2023-03-26T10:29:46.000Z,15.7
2023-03-26T10:30:59.000Z,15.8
2023-03-26T10:32:11.000Z,15.9
2023-03-26T10:33:23.000Z,16
2023-03-26T10:34:35.000Z,16.1
2023-03-26T10:35:47.000Z,16.2
2023-03-26T10:36:59.000Z,16.3
2023-03-26T10:38:11.000Z,16.3
2023-03-26T10:39:23.000Z,16.3
2023-03-26T10:40:35.000Z,16.3
2023-03-26T10:41:47.000Z,16.4
2023-03-26T10:42:59.000Z,16.5
2023-03-26T10:44:12.000Z,16.6
2023-03-26T10:45:24.000Z,16.6
2023-03-26T10:46:36.000Z,16.6
2023-03-26T10:47:48.000Z,16.7
2023-03-26T10:49:00.000Z,16.6
2023-03-26T10:50:13.000Z,16.6
2023-03-26T10:51:25.000Z,16.6
2023-03-26T10:52:36.000Z,16.6
2023-03-26T10:53:48.000Z,16.5
2023-03-26T10:55:00.000Z,16.4
2023-03-26T10:56:13.000Z,16.4
2023-03-26T10:57:25.000Z,16.3
2023-03-26T10:58:37.000Z,16.2
2023-03-26T10:59:49.000Z,16.2
2023-03-26T11:01:01.000Z,16.1
2023-03-26T11:02:13.000Z,16
2023-03-26T11:03:26.000Z,15.9
2023-03-26T11:04:38.000Z,15.9
2023-03-26T11:05:50.000Z,15.8
2023-03-26T11:07:02.000Z,15.7
2023-03-26T11:08:13.000Z,15.6
2023-03-26T11:09:26.000Z,15.6
2023-03-26T11:10:38.000Z,15.6
2023-03-26T11:11:50.000Z,15.8
2023-03-26T11:13:02.000Z,15.9
2023-03-26T11:14:14.000Z,16
2023-03-26T11:15:26.000Z,16.1
2023-03-26T11:16:39.000Z,16.2
2023-03-26T11:17:51.000Z,16.2
2023-03-26T11:19:03.000Z,16.2
2023-03-26T11:20:15.000Z,16.1
2023-03-26T11:21:27.000Z,16.1
2023-03-26T11:22:40.000Z,16
2023-03-26T11:23:51.000Z,16
2023-03-26T11:25:03.000Z,16
2023-03-26T11:26:15.000Z,15.9
2023-03-26T11:27:27.000Z,15.9
2023-03-26T11:28:40.000Z,15.8
2023-03-26T11:29:52.000Z,15.8
2023-03-26T11:31:04.000Z,15.7
2023-03-26T11:32:16.000Z,15.6
2023-03-26T11:33:28.000Z,15.6
2023-03-26T11:34:40.000Z,15.5
2023-03-26T11:35:53.000Z,15.4
2023-03-26T11:37:05.000Z,15.4
2023-03-26T11:38:17.000Z,15.3
2023-03-26T11:39:28.000Z,15.3
2023-03-26T11:40:40.000Z,15.3
2023-03-26T11:41:53.000Z,15.3
2023-03-26T11:43:05.000Z,15.2
2023-03-26T11:44:17.000Z,15.3
2023-03-26T11:45:29.000Z,15.3
2023-03-26T11:46:41.000Z,15.3
2023-03-26T11:47:53.000Z,15.3
2023-03-26T11:49:06.000Z,15.3
2023-03-26T11:50:18.000Z,15.4
2023-03-26T11:51:30.000Z,15.4
2023-03-26T11:52:42.000Z,15.4
2023-03-26T11:53:54.000Z,15.4
2023-03-26T11:55:06.000Z,15.5
2023-03-26T11:57:07.508Z,15.5
2023-03-26T11:57:30.000Z,15.5
2023-03-26T11:58:42.000Z,15.5
2023-03-26T11:59:54.000Z,15.5
2023-03-26T12:01:07.000Z,15.5
2023-03-26T12:02:19.000Z,15.5
2023-03-26T12:04:20.607Z,15.5
2023-03-26T12:04:43.000Z,15.4
2023-03-26T12:05:55.000Z,15.5
2023-03-26T12:07:07.000Z,15.4
2023-03-26T12:08:20.000Z,15.4
2023-03-26T12:09:32.000Z,15.4
2023-03-26T12:10:43.000Z,15.4
2023-03-26T12:11:55.000Z,15.4
2023-03-26T12:13:07.000Z,15.4
2023-03-26T12:14:20.000Z,15.3
2023-03-26T12:15:32.000Z,15.3
2023-03-26T12:16:44.000Z,15.3
2023-03-26T12:17:55.000Z,15.3
2023-03-26T12:19:07.000Z,15.3
2023-03-26T12:20:19.000Z,15.3
2023-03-26T12:21:32.000Z,15.3
2023-03-26T12:22:44.000Z,15.3
2023-03-26T12:23:56.000Z,15.3
2023-03-26T12:25:08.000Z,15.3
2023-03-26T12:26:20.000Z,15.3
2023-03-26T12:27:33.000Z,15.3
2023-03-26T12:28:45.000Z,15.3
2023-03-26T12:29:57.000Z,15.3
2023-03-26T12:31:09.000Z,15.2
2023-03-26T12:32:21.000Z,15.2
2023-03-26T12:33:33.000Z,15.2
2023-03-26T12:34:45.000Z,15.1
2023-03-26T12:35:57.000Z,15.1
2023-03-26T12:37:09.000Z,15.1
2023-03-26T12:38:21.000Z,15
2023-03-26T12:39:33.000Z,15
2023-03-26T12:40:46.000Z,14.9
2023-03-26T12:41:58.000Z,14.9
2023-03-26T12:43:10.000Z,14.9
2023-03-26T12:44:22.000Z,14.9
2023-03-26T12:46:24.131Z,14.9
2023-03-26T12:46:47.000Z,14.9
2023-03-26T12:47:59.000Z,14.8
2023-03-26T12:49:10.000Z,14.8
2023-03-26T12:50:22.000Z,14.8
2023-03-26T12:51:34.000Z,14.8
2023-03-26T12:52:46.000Z,14.8
2023-03-26T12:53:59.000Z,14.8
2023-03-26T12:55:11.000Z,14.8
2023-03-26T12:56:23.000Z,14.8
2023-03-26T12:57:35.000Z,14.8
2023-03-26T12:58:47.000Z,14.8
2023-03-26T13:00:00.000Z,14.8
2023-03-26T13:01:12.000Z,14.8
2023-03-26T13:02:24.000Z,14.8
2023-03-26T13:03:36.000Z,14.8
2023-03-26T13:04:47.000Z,14.7
2023-03-26T13:06:00.000Z,14.7
2023-03-26T13:07:12.000Z,14.7
2023-03-26T13:08:24.000Z,14.6
2023-03-26T13:09:36.000Z,14.6
2023-03-26T13:10:48.000Z,14.6
2023-03-26T13:12:00.000Z,14.6
2023-03-26T13:13:13.000Z,14.5
2023-03-26T13:14:25.000Z,14.5
2023-03-26T13:15:37.000Z,14.5
2023-03-26T13:16:49.000Z,14.5
2023-03-26T13:18:01.000Z,14.5
2023-03-26T13:19:14.000Z,14.4
2023-03-26T13:20:25.000Z,14.4
2023-03-26T13:21:37.000Z,14.4
2023-03-26T13:22:49.000Z,14.4
2023-03-26T13:24:01.000Z,14.4
2023-03-26T13:25:14.000Z,14.4
2023-03-26T13:26:26.000Z,14.3
2023-03-26T13:27:38.000Z,14.3
2023-03-26T13:28:50.000Z,14.3
2023-03-26T13:30:02.000Z,14.3
2023-03-26T13:31:14.000Z,14.3
2023-03-26T13:32:27.000Z,14.3
2023-03-26T13:33:39.000Z,14.2
2023-03-26T13:34:51.000Z,14.2
2023-03-26T13:36:02.000Z,14.2
2023-03-26T13:37:14.000Z,14.2
2023-03-26T13:38:27.000Z,14.2
2023-03-26T13:39:39.000Z,14.2
2023-03-26T13:40:51.000Z,14.1
2023-03-26T13:42:03.000Z,14.1
2023-03-26T13:43:15.000Z,14.1
2023-03-26T13:44:27.000Z,14.1
2023-03-26T13:45:40.000Z,14.1
2023-03-26T13:46:52.000Z,14.1
2023-03-26T13:48:04.000Z,14.1
2023-03-26T13:49:16.000Z,14.1
2023-03-26T13:50:28.000Z,14
2023-03-26T13:51:40.000Z,14
2023-03-26T13:52:52.000Z,14
2023-03-26T13:54:04.000Z,14
2023-03-26T13:55:16.000Z,14
2023-03-26T13:56:28.000Z,13.9
2023-03-26T13:57:41.000Z,13.9
2023-03-26T13:58:53.000Z,13.9
2023-03-26T14:00:05.000Z,13.9
2023-03-26T14:01:17.000Z,13.9
2023-03-26T14:02:29.000Z,13.9
2023-03-26T14:03:41.000Z,13.9
2023-03-26T14:04:54.000Z,13.8
2023-03-26T14:06:06.000Z,13.8
2023-03-26T14:07:17.000Z,13.8
2023-03-26T14:08:29.000Z,13.8
2023-03-26T14:09:41.000Z,13.8
2023-03-26T14:10:54.000Z,13.8
2023-03-26T14:12:06.000Z,13.8
2023-03-26T14:13:18.000Z,13.8
2023-03-26T14:14:30.000Z,13.7
2023-03-26T14:15:42.000Z,13.7
2023-03-26T14:16:55.000Z,13.7
2023-03-26T14:18:07.000Z,13.7
2023-03-26T14:19:19.000Z,13.7
2023-03-26T14:20:31.000Z,13.7
2023-03-26T14:21:43.000Z,13.7
2023-03-26T14:22:54.000Z,13.7
2023-03-26T14:24:07.000Z,13.6
2023-03-26T14:25:19.000Z,13.6
2023-03-26T14:26:31.000Z,13.6
2023-03-26T14:28:33.034Z,13.6
2023-03-26T14:28:55.000Z,13.6
2023-03-26T14:30:08.000Z,13.6
2023-03-26T14:31:20.000Z,13.6
2023-03-26T14:32:32.000Z,13.6
2023-03-26T14:33:44.000Z,13.5
2023-03-26T14:34:56.000Z,13.5
2023-03-26T14:36:09.000Z,13.5
2023-03-26T14:37:21.000Z,13.5
2023-03-26T14:38:32.000Z,13.5
2023-03-26T14:39:44.000Z,13.5
2023-03-26T14:40:56.000Z,13.5
2023-03-26T14:42:08.000Z,13.4
2023-03-26T14:43:21.000Z,13.4
2023-03-26T14:44:33.000Z,13.4
2023-03-26T14:45:45.000Z,13.4
2023-03-26T14:46:57.000Z,13.4
2023-03-26T14:48:09.000Z,13.4
2023-03-26T14:49:22.000Z,13.4
2023-03-26T14:50:34.000Z,13.4
2023-03-26T14:51:46.000Z,13.4
2023-03-26T14:53:47.960Z,13.4
2023-03-26T14:54:09.000Z,13.4
2023-03-26T14:55:22.000Z,13.4
2023-03-26T14:56:34.000Z,13.4
2023-03-26T14:57:46.000Z,13.3
2023-03-26T14:58:58.000Z,13.3
2023-03-26T15:00:10.000Z,13.3
2023-03-26T15:01:22.000Z,13.3
2023-03-26T15:02:35.000Z,13.3
2023-03-26T15:03:47.000Z,13.3
2023-03-26T15:04:59.000Z,13.3
2023-03-26T15:06:11.000Z,13.3
2023-03-26T15:07:23.000Z,13.3
2023-03-26T15:08:36.000Z,13.3
2023-03-26T15:09:47.000Z,13.2
2023-03-26T15:10:59.000Z,13.2
2023-03-26T15:12:11.000Z,13.2
2023-03-26T15:13:23.000Z,13.2
2023-03-26T15:14:35.000Z,13.2
2023-03-26T15:15:48.000Z,13.2
2023-03-26T15:17:00.000Z,13.2
2023-03-26T15:18:12.000Z,13.2
2023-03-26T15:19:24.000Z,13.2
2023-03-26T15:20:36.000Z,13.1
2023-03-26T15:21:49.000Z,13.1
2023-03-26T15:23:01.000Z,13.1
2023-03-26T15:24:13.000Z,13.1
2023-03-26T15:25:24.000Z,13.1
2023-03-26T15:26:36.000Z,13.1
2023-03-26T15:27:49.000Z,13.1
2023-03-26T15:29:01.000Z,13.1
2023-03-26T15:30:13.000Z,13
2023-03-26T15:31:25.000Z,13
2023-03-26T15:32:37.000Z,13
2023-03-26T15:33:49.000Z,13
2023-03-26T15:35:02.000Z,13
2023-03-26T15:36:14.000Z,13
2023-03-26T15:37:26.000Z,13
2023-03-26T15:38:38.000Z,12.9
2023-03-26T15:39:50.000Z,13
2023-03-26T15:41:02.000Z,12.9
2023-03-26T15:42:14.000Z,12.9
2023-03-26T15:43:26.000Z,12.9
2023-03-26T15:44:38.000Z,12.9
2023-03-26T15:45:50.000Z,12.9
2023-03-26T15:47:03.000Z,12.9
2023-03-26T15:48:15.000Z,12.8
2023-03-26T15:49:27.000Z,12.8
2023-03-26T15:50:39.000Z,12.8
2023-03-26T15:51:51.000Z,12.8
2023-03-26T15:53:03.000Z,12.8
2023-03-26T15:54:16.000Z,12.8
2023-03-26T15:55:28.000Z,12.8
2023-03-26T15:56:39.000Z,12.8
2023-03-26T15:57:51.000Z,12.8
2023-03-26T15:59:03.000Z,12.8
2023-03-26T16:00:16.000Z,12.7
2023-03-26T16:01:28.000Z,12.7
2023-03-26T16:02:40.000Z,12.7
2023-03-26T16:03:52.000Z,12.7
2023-03-26T16:05:04.000Z,12.7